Time;durP1;ratioP1;P1;durP2;ratioP2;P2;SDS_P1;SDS_P2;PMS_P1;PMS_P2;Temp;Humidity;BMP_temperature;BMP_pressure;BME280_temperature;BME280_humidity;BME280_pressure;Samples;Min_cycle;Max_cycle;Signal;HPM_P1;HPM_P2
2023/03/30 00:00:59;;;;;;;0.52;0.52;;;10.30;99.90;;;;;;5092081;28;20077;-82
2023/03/30 00:03:26;;;;;;;0.60;0.47;;;10.30;99.90;;;;;;5088615;28;20457;-81
2023/03/30 00:05:55;;;;;;;1.80;0.47;;;10.30;99.90;;;;;;5081158;28;20424;-78
2023/03/30 00:08:26;;;;;;;1.45;1.45;;;10.40;99.90;;;;;;5092924;28;20087;-78
2023/03/30 00:10:59;;;;;;;2.13;0.82;;;10.30;99.90;;;;;;5092234;28;20066;-81
2023/03/30 00:13:25;;;;;;;1.17;1.13;;;10.40;99.90;;;;;;5098807;27;20066;-81
2023/03/30 00:15:51;;;;;;;0.75;0.70;;;10.40;99.90;;;;;;5062772;27;20048;-81
2023/03/30 00:18:17;;;;;;;0.52;0.50;;;10.40;99.90;;;;;;5079589;27;20046;-82
2023/03/30 00:20:43;;;;;;;0.50;0.50;;;10.40;99.90;;;;;;5102171;27;20428;-82
2023/03/30 00:23:10;;;;;;;0.30;0.30;;;10.40;99.90;;;;;;5089911;28;20118;-81
2023/03/30 00:25:35;;;;;;;;;;;10.40;99.90;;;;;;5102847;27;20043;-81
2023/03/30 00:28:02;;;;;;;0.57;0.57;;;10.40;99.90;;;;;;5093043;27;19946;-78
2023/03/30 00:30:28;;;;;;;0.75;0.75;;;10.40;99.90;;;;;;5090448;27;20047;-81
2023/03/30 00:32:53;;;;;;;0.35;0.35;;;10.40;99.90;;;;;;5074321;28;20040;-81
2023/03/30 00:35:19;;;;;;;1.38;1.35;;;10.40;99.90;;;;;;5076458;27;20042;-81
2023/03/30 00:37:48;;;;;;;0.50;0.50;;;10.40;99.90;;;;;;5098167;28;20055;-81
2023/03/30 00:40:18;;;;;;;0.40;0.40;;;10.40;99.90;;;;;;5076499;28;20504;-80
2023/03/30 00:42:45;;;;;;;0.45;0.45;;;10.50;99.90;;;;;;5093800;27;20116;-80
2023/03/30 00:45:21;;;;;;;0.55;0.55;;;10.60;99.90;;;;;;5083094;27;20080;-80
2023/03/30 00:48:01;;;;;;;0.50;0.50;;;10.60;99.90;;;;;;5094140;28;20374;-80
2023/03/30 00:50:51;;;;;;;0.30;0.30;;;10.70;99.90;;;;;;5080885;27;20038;-80
2023/03/30 00:53:24;;;;;;;1.85;0.95;;;10.70;99.90;;;;;;5081104;28;20173;-81
2023/03/30 00:55:52;;;;;;;0.40;0.40;;;10.80;99.90;;;;;;5091030;28;20563;-81
2023/03/30 00:58:21;;;;;;;0.85;0.85;;;10.80;99.90;;;;;;5090358;27;20036;-81
2023/03/30 01:00:47;;;;;;;0.30;0.30;;;10.90;99.90;;;;;;5105077;27;20035;-81
2023/03/30 01:03:18;;;;;;;;;;;10.90;99.90;;;;;;5086233;27;20062;-81
2023/03/30 01:05:44;;;;;;;1.75;0.95;;;11.00;99.90;;;;;;5088566;28;20014;-81
2023/03/30 01:08:15;;;;;;;0.52;0.52;;;11.00;99.90;;;;;;5085091;28;20058;-81
2023/03/30 01:10:42;;;;;;;0.38;0.38;;;11.00;99.90;;;;;;5075205;28;20044;-81
2023/03/30 01:13:09;;;;;;;0.57;0.57;;;11.00;99.90;;;;;;5094931;28;20043;-80
2023/03/30 01:15:44;;;;;;;0.88;0.88;;;11.00;99.90;;;;;;5091158;27;20094;-80
2023/03/30 01:18:43;;;;;;;1.42;1.02;;;11.10;99.90;;;;;;5081080;27;20047;-81
2023/03/30 01:21:22;;;;;;;0.40;0.40;;;11.10;99.90;;;;;;5072726;27;20055;-82
2023/03/30 01:23:48;;;;;;;0.40;0.40;;;11.10;99.90;;;;;;5094385;27;20055;-81
2023/03/30 01:26:47;;;;;;;1.05;0.98;;;11.20;99.90;;;;;;5109181;27;20046;-81
2023/03/30 01:29:23;;;;;;;0.90;0.88;;;11.20;99.90;;;;;;5088440;27;20440;-81
2023/03/30 01:32:13;;;;;;;0.52;0.52;;;11.20;99.90;;;;;;5097949;27;20041;-80
2023/03/30 01:35:17;;;;;;;0.70;0.65;;;11.30;99.90;;;;;;5098173;28;20244;-81
2023/03/30 01:37:55;;;;;;;0.68;0.68;;;11.30;99.90;;;;;;5092606;27;20484;-81
2023/03/30 01:40:32;;;;;;;0.50;0.50;;;11.30;99.90;;;;;;5091464;28;20532;-81
2023/03/30 01:43:07;;;;;;;0.63;0.63;;;11.30;99.90;;;;;;5079311;27;20150;-81
2023/03/30 01:45:44;;;;;;;1.02;1.02;;;11.40;99.90;;;;;;5094075;28;20532;-80
2023/03/30 01:48:22;;;;;;;0.85;0.85;;;11.30;99.90;;;;;;5097068;27;20116;-80
2023/03/30 01:50:58;;;;;;;0.82;0.73;;;11.40;99.90;;;;;;5091108;28;20035;-79
2023/03/30 01:53:30;;;;;;;0.80;0.80;;;11.40;99.90;;;;;;5094706;27;20043;-80
2023/03/30 01:56:18;;;;;;;0.47;0.47;;;11.30;99.90;;;;;;5090520;27;20043;-80
2023/03/30 01:59:13;;;;;;;0.32;0.32;;;11.30;99.90;;;;;;5070840;28;20028;-82
2023/03/30 02:01:40;;;;;;;0.47;0.47;;;11.30;99.90;;;;;;5056861;28;20074;-82
2023/03/30 02:04:09;;;;;;;0.30;0.30;;;11.30;99.90;;;;;;5093507;28;20072;-80
2023/03/30 02:07:19;;;;;;;0.20;0.20;;;11.20;99.90;;;;;;5095138;27;20051;-80
2023/03/30 02:09:47;;;;;;;0.65;0.65;;;11.20;99.90;;;;;;4988086;28;20052;-80
2023/03/30 02:12:13;;;;;;;0.30;0.30;;;11.20;99.90;;;;;;5009098;28;20042;-81
2023/03/30 02:14:40;;;;;;;0.40;0.40;;;11.20;99.90;;;;;;5034884;27;20050;-81
2023/03/30 02:17:21;;;;;;;0.43;0.43;;;11.20;99.90;;;;;;5106753;28;20108;-80
2023/03/30 02:19:47;;;;;;;0.50;0.50;;;11.20;99.90;;;;;;5069510;28;20644;-81
2023/03/30 02:22:18;;;;;;;0.40;0.40;;;11.20;99.90;;;;;;5089003;28;20045;-80
2023/03/30 02:24:47;;;;;;;2.08;1.90;;;11.20;99.90;;;;;;5081855;27;20480;-81
2023/03/30 02:27:13;;;;;;;0.40;0.40;;;11.20;99.90;;;;;;5074271;28;20040;-81
2023/03/30 02:29:43;;;;;;;0.40;0.40;;;11.20;99.90;;;;;;5070399;28;20043;-81
2023/03/30 02:32:21;;;;;;;0.82;0.82;;;11.20;99.90;;;;;;5072994;27;20322;-81
2023/03/30 02:35:10;;;;;;;0.75;0.75;;;11.30;99.90;;;;;;5101957;27;20484;-81
2023/03/30 02:37:54;;;;;;;0.45;0.40;;;11.30;99.90;;;;;;5090445;28;20047;-82
2023/03/30 02:40:38;;;;;;;5.40;0.70;;;11.30;99.90;;;;;;5070108;28;20050;-81
2023/03/30 02:43:16;;;;;;;0.47;0.47;;;11.30;99.90;;;;;;5085716;28;20097;-82
2023/03/30 02:46:36;;;;;;;0.47;0.47;;;11.30;99.90;;;;;;5092222;28;20039;-82
2023/03/30 02:49:15;;;;;;;0.50;0.50;;;11.20;99.90;;;;;;5087577;27;20055;-82
2023/03/30 02:52:08;;;;;;;0.32;0.32;;;11.30;99.90;;;;;;5082778;27;20805;-81
2023/03/30 02:54:40;;;;;;;0.30;0.30;;;11.30;99.90;;;;;;5093422;28;20353;-82
2023/03/30 02:57:13;;;;;;;0.47;0.47;;;11.40;99.90;;;;;;5092503;27;20131;-81
2023/03/30 02:59:39;;;;;;;0.60;0.60;;;11.50;99.90;;;;;;5091405;28;20468;-82
2023/03/30 03:02:21;;;;;;;1.50;1.40;;;11.50;99.90;;;;;;5094900;28;20082;-82
2023/03/30 03:04:49;;;;;;;1.40;0.50;;;11.50;99.90;;;;;;5092681;28;20035;-81
2023/03/30 03:07:14;;;;;;;0.40;0.40;;;11.60;99.90;;;;;;5075446;28;20048;-80
2023/03/30 03:09:41;;;;;;;0.80;0.60;;;11.60;99.90;;;;;;5089113;28;20127;-81
2023/03/30 03:12:06;;;;;;;0.35;0.35;;;11.70;99.90;;;;;;5075757;28;20044;-80
2023/03/30 03:14:32;;;;;;;0.47;0.47;;;11.80;99.90;;;;;;5061184;28;20099;-81
2023/03/30 03:16:58;;;;;;;0.77;0.55;;;11.90;99.90;;;;;;5091201;28;20152;-80
2023/03/30 03:19:24;;;;;;;0.30;0.30;;;11.90;99.90;;;;;;5075133;28;20051;-81
2023/03/30 03:21:50;;;;;;;0.45;0.45;;;12.00;99.90;;;;;;5090253;28;20044;-81
2023/03/30 03:24:17;;;;;;;0.38;0.38;;;12.00;99.90;;;;;;5093407;28;20099;-80
2023/03/30 03:26:44;;;;;;;0.65;0.50;;;12.00;99.90;;;;;;5090738;28;20043;-81
2023/03/30 03:29:10;;;;;;;0.50;0.50;;;12.00;99.90;;;;;;5087878;28;20082;-81
2023/03/30 03:31:36;;;;;;;0.60;0.60;;;12.10;99.90;;;;;;5099970;28;20071;-81
2023/03/30 03:34:02;;;;;;;0.40;0.40;;;12.10;99.90;;;;;;5077463;28;20039;-81
2023/03/30 03:36:29;;;;;;;0.35;0.35;;;12.10;99.90;;;;;;5079292;28;20113;-80
2023/03/30 03:38:55;;;;;;;0.98;0.98;;;12.00;99.90;;;;;;5080753;28;20108;-80
2023/03/30 03:41:20;;;;;;;0.63;0.40;;;11.90;99.90;;;;;;5107011;28;20043;-80
2023/03/30 03:43:46;;;;;;;0.30;0.30;;;11.90;99.90;;;;;;5058079;28;20126;-80
2023/03/30 03:46:14;;;;;;;0.90;0.77;;;11.90;99.90;;;;;;5090247;28;20127;-81
2023/03/30 03:48:40;;;;;;;0.40;0.40;;;11.90;99.90;;;;;;5101478;27;20727;-81
2023/03/30 03:51:06;;;;;;;0.40;0.40;;;11.90;99.90;;;;;;5084826;28;20045;-81
2023/03/30 03:53:32;;;;;;;2.78;0.50;;;11.90;99.90;;;;;;5095563;28;20422;-80
2023/03/30 03:55:58;;;;;;;0.30;0.30;;;11.90;99.90;;;;;;5095085;28;20047;-81
2023/03/30 03:58:24;;;;;;;;;;;11.90;99.90;;;;;;5076235;28;20044;-81
2023/03/30 04:00:50;;;;;;;0.30;0.30;;;12.00;99.90;;;;;;5096133;27;19919;-80
2023/03/30 04:03:16;;;;;;;0.22;0.22;;;11.90;99.90;;;;;;5105405;27;20300;-81
2023/03/30 04:05:42;;;;;;;0.30;0.30;;;12.00;99.90;;;;;;5096366;28;20046;-81
2023/03/30 04:08:09;;;;;;;0.30;0.30;;;12.00;99.90;;;;;;5090813;28;20059;-80
2023/03/30 04:10:39;;;;;;;0.63;0.63;;;12.00;99.90;;;;;;5075340;28;20042;-81
2023/03/30 04:13:05;;;;;;;0.38;0.38;;;12.00;99.90;;;;;;5053654;28;20032;-80
2023/03/30 04:15:31;;;;;;;;;;;12.00;99.90;;;;;;5089085;28;20042;-81
2023/03/30 04:17:57;;;;;;;0.30;0.30;;;12.00;99.90;;;;;;5061074;28;19915;-81
2023/03/30 04:20:27;;;;;;;0.50;0.50;;;12.00;99.90;;;;;;5094607;28;20044;-84
2023/03/30 04:22:54;;;;;;;0.68;0.68;;;12.00;99.90;;;;;;5092869;28;20111;-83
2023/03/30 04:25:24;;;;;;;0.30;0.30;;;12.00;99.90;;;;;;5092433;28;20048;-82
2023/03/30 04:27:51;;;;;;;0.30;0.30;;;12.10;99.90;;;;;;5090523;28;20479;-82
2023/03/30 04:30:18;;;;;;;0.30;0.30;;;12.00;99.90;;;;;;5094806;28;20123;-82
2023/03/30 04:32:45;;;;;;;0.30;0.30;;;12.00;99.90;;;;;;5091539;28;20047;-82
2023/03/30 04:35:13;;;;;;;0.30;0.30;;;12.00;99.90;;;;;;5091668;28;20040;-82
2023/03/30 04:37:40;;;;;;;0.60;0.60;;;12.00;99.90;;;;;;5088110;28;20370;-82
2023/03/30 04:40:11;;;;;;;0.60;0.60;;;11.90;99.90;;;;;;5069943;28;20050;-82
2023/03/30 04:42:38;;;;;;;0.40;0.40;;;11.90;99.90;;;;;;5101716;28;20062;-82
2023/03/30 04:45:08;;;;;;;0.85;0.85;;;11.90;99.90;;;;;;5095283;28;20089;-82
2023/03/30 04:47:34;;;;;;;0.68;0.68;;;11.80;99.90;;;;;;5097346;28;20043;-82
2023/03/30 04:50:01;;;;;;;1.55;1.15;;;11.90;99.90;;;;;;5093141;28;20040;-81
2023/03/30 04:52:27;;;;;;;0.30;0.30;;;11.90;99.90;;;;;;5084439;28;20086;-81
2023/03/30 04:54:54;;;;;;;0.30;0.30;;;11.90;99.90;;;;;;5094945;28;20056;-81
2023/03/30 04:57:20;;;;;;;0.40;0.40;;;11.90;99.90;;;;;;5087279;28;20128;-82
2023/03/30 04:59:46;;;;;;;0.63;0.63;;;11.90;99.90;;;;;;5088072;28;20392;-82
2023/03/30 05:02:12;;;;;;;;;;;12.00;99.90;;;;;;5076617;28;20636;-82
2023/03/30 05:04:38;;;;;;;0.40;0.40;;;12.00;99.90;;;;;;5075467;28;19920;-81
2023/03/30 05:07:05;;;;;;;0.30;0.30;;;12.00;99.90;;;;;;5093764;28;20060;-81
2023/03/30 05:09:31;;;;;;;0.73;0.73;;;12.10;99.90;;;;;;5090194;28;20051;-82
2023/03/30 05:11:57;;;;;;;0.22;0.22;;;12.10;99.90;;;;;;5092379;28;20390;-82
2023/03/30 05:14:22;;;;;;;0.73;0.73;;;12.10;99.90;;;;;;5097223;28;20043;-81
2023/03/30 05:16:48;;;;;;;0.25;0.25;;;12.10;99.90;;;;;;5095888;28;20400;-82
2023/03/30 05:19:14;;;;;;;0.40;0.40;;;12.10;99.90;;;;;;5094052;28;20477;-82
2023/03/30 05:21:40;;;;;;;;;;;12.10;99.90;;;;;;5069678;28;20052;-81
2023/03/30 05:24:06;;;;;;;0.20;0.20;;;12.10;99.90;;;;;;5078567;28;19926;-82
2023/03/30 05:26:32;;;;;;;0.45;0.45;;;12.10;99.90;;;;;;5086982;28;20076;-82
2023/03/30 05:28:57;;;;;;;;;;;12.10;99.90;;;;;;5089706;28;20040;-82
2023/03/30 05:31:23;;;;;;;0.28;0.28;;;12.10;99.90;;;;;;5091934;28;19976;-82
2023/03/30 05:33:50;;;;;;;0.40;0.40;;;12.20;99.90;;;;;;5075588;28;20108;-81
2023/03/30 05:36:17;;;;;;;0.40;0.40;;;12.20;99.90;;;;;;5084574;28;20122;-82
2023/03/30 05:38:42;;;;;;;;;;;12.20;99.90;;;;;;5088216;28;20041;-83
2023/03/30 05:41:08;;;;;;;0.40;0.40;;;12.20;99.90;;;;;;5093397;28;19990;-83
2023/03/30 05:43:33;;;;;;;1.00;1.00;;;12.20;99.90;;;;;;5094454;28;20071;-84
2023/03/30 05:46:01;;;;;;;0.52;0.52;;;12.20;99.90;;;;;;5087378;28;20134;-83
2023/03/30 05:48:27;;;;;;;0.30;0.30;;;12.20;99.90;;;;;;5069214;28;20047;-81
2023/03/30 05:50:53;;;;;;;0.50;0.50;;;12.10;99.90;;;;;;5083681;28;20474;-82
2023/03/30 05:53:19;;;;;;;0.40;0.40;;;12.10;99.90;;;;;;5042028;28;20089;-82
2023/03/30 05:55:46;;;;;;;1.30;0.68;;;12.00;99.90;;;;;;5064912;28;20040;-81
2023/03/30 05:58:13;;;;;;;0.43;0.43;;;12.00;99.90;;;;;;5082801;28;20043;-82
2023/03/30 06:00:40;;;;;;;0.73;0.73;;;12.10;99.90;;;;;;5085552;28;20036;-82
2023/03/30 06:03:07;;;;;;;0.30;0.30;;;12.00;99.90;;;;;;5085569;28;20051;-82
2023/03/30 06:05:38;;;;;;;0.65;0.65;;;12.10;99.90;;;;;;5083739;28;20048;-82
2023/03/30 06:08:06;;;;;;;0.93;0.93;;;12.10;99.90;;;;;;5069556;28;20048;-82
2023/03/30 06:10:33;;;;;;;0.30;0.30;;;12.10;99.90;;;;;;5067714;28;20037;-83
2023/03/30 06:12:58;;;;;;;0.50;0.50;;;12.20;99.90;;;;;;5053006;28;20098;-82
2023/03/30 06:15:24;;;;;;;0.50;0.50;;;12.20;99.90;;;;;;5053748;28;20482;-82
2023/03/30 06:17:51;;;;;;;;;;;12.20;99.90;;;;;;5071277;28;20044;-81
2023/03/30 06:20:20;;;;;;;0.35;0.35;;;12.20;99.90;;;;;;5066294;28;19920;-81
2023/03/30 06:22:47;;;;;;;1.00;0.88;;;12.20;99.90;;;;;;5064887;28;20094;-81
2023/03/30 06:25:14;;;;;;;0.90;0.90;;;12.30;99.90;;;;;;5066515;28;20049;-82
2023/03/30 06:27:40;;;;;;;0.60;0.60;;;12.30;99.90;;;;;;5065428;28;20048;-82
2023/03/30 06:30:10;;;;;;;0.95;0.95;;;12.30;99.90;;;;;;5047426;28;20047;-83
2023/03/30 06:32:36;;;;;;;0.73;0.73;;;12.30;99.90;;;;;;5048646;28;20053;-82
2023/03/30 06:35:02;;;;;;;;;;;12.30;99.90;;;;;;5065478;28;20147;-81
2023/03/30 06:37:30;;;;;;;0.30;0.30;;;12.30;99.90;;;;;;5047560;28;19932;-83
2023/03/30 06:39:56;;;;;;;1.55;0.85;;;12.30;99.90;;;;;;5067334;28;20495;-82
2023/03/30 06:42:22;;;;;;;1.25;0.85;;;12.30;99.90;;;;;;5068236;28;20054;-88
2023/03/30 06:44:48;;;;;;;0.75;0.75;;;12.40;99.90;;;;;;5036429;28;20053;-87
2023/03/30 06:47:14;;;;;;;0.82;0.82;;;12.40;99.90;;;;;;5050961;28;20048;-82
2023/03/30 06:49:39;;;;;;;0.32;0.32;;;12.40;99.90;;;;;;5045854;28;20060;-82
2023/03/30 06:52:06;;;;;;;0.93;0.70;;;12.50;99.90;;;;;;5065864;28;20131;-83
2023/03/30 06:54:31;;;;;;;0.35;0.35;;;12.50;99.90;;;;;;5064626;28;20040;-82
2023/03/30 06:56:57;;;;;;;0.40;0.40;;;12.50;99.90;;;;;;5070123;28;20043;-82
2023/03/30 06:59:23;;;;;;;0.63;0.60;;;12.50;99.90;;;;;;5048672;28;20482;-83
2023/03/30 07:01:49;;;;;;;0.60;0.60;;;12.50;99.90;;;;;;5049264;28;20128;-82
2023/03/30 07:04:15;;;;;;;;;;;12.50;99.90;;;;;;5059789;28;20044;-83
2023/03/30 07:06:40;;;;;;;0.98;0.90;;;12.50;99.90;;;;;;5054990;28;19924;-82
2023/03/30 07:09:06;;;;;;;0.30;0.30;;;12.50;99.90;;;;;;5051810;28;20473;-82
2023/03/30 07:11:32;;;;;;;0.40;0.40;;;12.60;99.90;;;;;;5068622;28;20067;-82
2023/03/30 07:14:00;;;;;;;0.85;0.70;;;12.60;99.90;;;;;;5083906;28;20050;-82
2023/03/30 07:16:26;;;;;;;0.30;0.30;;;12.60;99.90;;;;;;5038111;28;20052;-83
2023/03/30 07:18:51;;;;;;;0.30;0.30;;;12.70;99.90;;;;;;5087495;28;20049;-82
2023/03/30 07:21:18;;;;;;;0.30;0.30;;;12.70;99.90;;;;;;5071438;28;20118;-82
2023/03/30 07:23:43;;;;;;;;;;;12.80;99.90;;;;;;5093343;28;20126;-82
2023/03/30 07:26:10;;;;;;;1.75;1.65;;;12.70;99.90;;;;;;5075528;28;20006;-82
2023/03/30 07:28:37;;;;;;;0.30;0.30;;;12.70;99.90;;;;;;5095157;28;20043;-82
2023/03/30 07:31:07;;;;;;;0.30;0.30;;;12.80;99.90;;;;;;5112110;27;20067;-82
2023/03/30 07:33:33;;;;;;;0.20;0.20;;;12.80;99.90;;;;;;5094662;27;20429;-82
2023/03/30 07:35:59;;;;;;;0.20;0.20;;;12.80;99.90;;;;;;5079057;28;20089;-82
2023/03/30 07:38:25;;;;;;;0.90;0.90;;;12.70;99.90;;;;;;5084892;28;20043;-85
2023/03/30 07:40:51;;;;;;;0.50;0.50;;;12.70;99.90;;;;;;5090682;28;20042;-85
2023/03/30 07:43:17;;;;;;;1.13;1.13;;;12.60;99.90;;;;;;5094747;28;20031;-84
2023/03/30 07:45:43;;;;;;;1.95;1.58;;;12.60;99.90;;;;;;5095548;28;20047;-83
2023/03/30 07:48:08;;;;;;;2.70;2.60;;;12.60;99.90;;;;;;5060612;28;20078;-84
2023/03/30 07:50:34;;;;;;;0.82;0.73;;;12.50;99.90;;;;;;5092167;28;20078;-84
2023/03/30 07:53:00;;;;;;;2.08;1.15;;;12.50;99.90;;;;;;5099585;28;20040;-83
2023/03/30 07:55:27;;;;;;;1.23;0.65;;;12.50;99.90;;;;;;5088430;28;20126;-84
2023/03/30 07:57:54;;;;;;;0.43;0.43;;;12.40;99.90;;;;;;5092294;28;20206;-85
2023/03/30 08:00:21;;;;;;;0.30;0.30;;;12.30;99.90;;;;;;5075202;28;20078;-84
2023/03/30 08:02:47;;;;;;;0.40;0.40;;;12.20;99.90;;;;;;5091863;28;20047;-84
2023/03/30 08:05:14;;;;;;;0.47;0.40;;;12.10;99.90;;;;;;5093099;28;20046;-85
2023/03/30 08:07:41;;;;;;;1.20;0.82;;;12.10;99.90;;;;;;5075822;28;20154;-84
2023/03/30 08:10:08;;;;;;;0.20;0.20;;;12.10;99.90;;;;;;5089220;28;20044;-84
2023/03/30 08:12:33;;;;;;;;;;;12.00;99.90;;;;;;5090156;27;20036;-85
2023/03/30 08:15:00;;;;;;;0.65;0.65;;;11.90;99.90;;;;;;5069041;28;20391;-85
2023/03/30 08:17:26;;;;;;;0.30;0.30;;;11.80;99.90;;;;;;5088594;28;20055;-83
2023/03/30 08:19:52;;;;;;;2.88;2.70;;;11.70;99.90;;;;;;5074757;28;20156;-84
2023/03/30 08:22:17;;;;;;;0.30;0.30;;;11.60;99.90;;;;;;5090087;28;20145;-85
2023/03/30 08:24:43;;;;;;;0.35;0.35;;;11.60;99.90;;;;;;5086981;28;20036;-84
2023/03/30 08:27:09;;;;;;;0.73;0.73;;;11.70;99.90;;;;;;5088301;28;20569;-85
2023/03/30 08:29:34;;;;;;;7.80;1.48;;;11.70;99.90;;;;;;5085024;28;20044;-85
2023/03/30 08:32:00;;;;;;;0.57;0.57;;;11.80;99.90;;;;;;5087924;28;20440;-84
2023/03/30 08:34:26;;;;;;;2.33;2.22;;;11.80;99.90;;;;;;5081219;28;20039;-85
2023/03/30 08:36:52;;;;;;;0.65;0.65;;;11.80;99.90;;;;;;5073076;28;20036;-85
2023/03/30 08:39:17;;;;;;;0.47;0.47;;;11.60;99.90;;;;;;5057440;28;20544;-84
2023/03/30 08:41:48;;;;;;;1.02;1.02;;;11.50;99.90;;;;;;5089700;28;20050;-85
2023/03/30 08:44:34;;;;;;;0.45;0.35;;;11.40;99.90;;;;;;5091598;27;20119;-84
2023/03/30 08:47:02;;;;;;;0.40;0.40;;;11.40;99.90;;;;;;5072367;28;20039;-84
2023/03/30 08:49:32;;;;;;;0.30;0.30;;;11.40;99.90;;;;;;5086561;27;20054;-84
2023/03/30 08:52:01;;;;;;;0.40;0.40;;;11.40;99.90;;;;;;5076033;27;20118;-84
2023/03/30 08:54:28;;;;;;;0.47;0.47;;;11.40;99.90;;;;;;5089309;28;20060;-84
2023/03/30 08:57:10;;;;;;;1.00;1.00;;;11.40;99.90;;;;;;5095054;27;20054;-84
2023/03/30 08:59:41;;;;;;;0.73;0.73;;;11.40;99.90;;;;;;5085883;28;20047;-84
2023/03/30 09:02:41;;;;;;;2.08;1.90;;;11.40;99.90;;;;;;5063967;28;20384;-84
2023/03/30 09:05:23;;;;;;;9.50;2.65;;;11.50;99.90;;;;;;5058959;27;20054;-84
2023/03/30 09:08:01;;;;;;;0.65;0.65;;;11.50;99.90;;;;;;5071260;27;20052;-84
2023/03/30 09:10:33;;;;;;;0.47;0.47;;;11.70;99.90;;;;;;5079927;27;20105;-84
2023/03/30 09:13:03;;;;;;;0.47;0.47;;;11.80;99.90;;;;;;5057604;28;20066;-84
2023/03/30 09:15:34;;;;;;;1.30;1.30;;;11.90;99.90;;;;;;5070856;28;20032;-83
2023/03/30 09:18:30;;;;;;;0.55;0.55;;;12.00;99.90;;;;;;5077325;27;20039;-84
2023/03/30 09:20:59;;;;;;;0.30;0.30;;;12.30;99.90;;;;;;5072468;27;20458;-84
2023/03/30 09:23:28;;;;;;;0.50;0.50;;;12.40;99.90;;;;;;5055481;27;20139;-84
2023/03/30 09:26:25;;;;;;;8.55;1.13;;;12.50;99.90;;;;;;5070925;28;20070;-84
2023/03/30 09:28:57;;;;;;;0.38;0.38;;;12.60;99.90;;;;;;5085462;27;20047;-84
2023/03/30 09:31:43;;;;;;;0.77;0.77;;;12.60;99.90;;;;;;5069393;27;20047;-84
2023/03/30 09:34:47;;;;;;;0.40;0.40;;;12.70;99.90;;;;;;5071068;27;20555;-85
2023/03/30 09:37:21;;;;;;;0.40;0.40;;;12.70;99.90;;;;;;5068033;28;20056;-84
2023/03/30 09:39:48;;;;;;;0.75;0.75;;;12.70;99.90;;;;;;5074511;27;21763;-84
2023/03/30 09:42:38;;;;;;;1.15;1.15;;;12.70;99.90;;;;;;5080297;27;20040;-84
2023/03/30 09:45:13;;;;;;;0.30;0.30;;;12.70;99.90;;;;;;5084584;28;20035;-84
2023/03/30 09:47:41;;;;;;;0.60;0.60;;;12.80;99.90;;;;;;5069383;28;20541;-84
2023/03/30 09:50:28;;;;;;;0.57;0.57;;;12.90;99.90;;;;;;5091512;28;20046;-84
2023/03/30 09:53:02;;;;;;;0.50;0.50;;;12.90;99.90;;;;;;5087928;28;20119;-84
2023/03/30 09:55:32;;;;;;;0.50;0.50;;;13.00;99.90;;;;;;5089707;27;20077;-84
2023/03/30 09:58:28;;;;;;;0.63;0.63;;;13.20;99.90;;;;;;5074340;28;20509;-84
2023/03/30 10:01:12;;;;;;;0.40;0.40;;;13.20;99.90;;;;;;5088129;28;20082;-83
2023/03/30 10:03:41;;;;;;;0.30;0.30;;;13.10;99.90;;;;;;5103713;28;20074;-85
2023/03/30 10:06:18;;;;;;;0.30;0.30;;;13.00;99.90;;;;;;5068205;27;20046;-85
2023/03/30 10:08:54;;;;;;;0.30;0.30;;;12.90;99.90;;;;;;5086047;28;20545;-84
2023/03/30 10:11:28;;;;;;;0.30;0.30;;;12.80;99.90;;;;;;5090174;28;20042;-84
2023/03/30 10:13:56;;;;;;;0.30;0.30;;;12.70;99.90;;;;;;5081227;28;20040;-84
2023/03/30 10:16:27;;;;;;;0.30;0.30;;;12.70;99.90;;;;;;5087129;28;20512;-85
2023/03/30 10:19:02;;;;;;;0.52;0.52;;;12.70;99.90;;;;;;5081323;28;20519;-84
2023/03/30 10:21:37;;;;;;;0.20;0.20;;;12.80;99.90;;;;;;5083225;28;20035;-84
2023/03/30 10:24:20;;;;;;;0.40;0.40;;;12.80;99.90;;;;;;5070004;28;20043;-84
2023/03/30 10:26:54;;;;;;;0.52;0.52;;;12.90;99.90;;;;;;5084270;28;20055;-85
2023/03/30 10:29:22;;;;;;;0.30;0.30;;;13.00;99.90;;;;;;5082607;28;20489;-84
2023/03/30 10:32:01;;;;;;;0.30;0.30;;;13.00;99.90;;;;;;5082206;28;20565;-84
2023/03/30 10:34:53;;;;;;;0.30;0.30;;;13.10;99.90;;;;;;5088258;28;20048;-85
2023/03/30 10:37:37;;;;;;;0.43;0.43;;;13.10;99.90;;;;;;5086332;28;20150;-84
2023/03/30 10:40:14;;;;;;;1.88;1.80;;;13.10;99.90;;;;;;5086143;28;20512;-84
2023/03/30 10:42:40;;;;;;;0.30;0.30;;;13.10;99.90;;;;;;5085608;28;20358;-85
2023/03/30 10:45:13;;;;;;;0.38;0.38;;;13.20;99.90;;;;;;5093671;28;20052;-85
2023/03/30 10:47:55;;;;;;;0.20;0.20;;;13.20;99.90;;;;;;5082267;28;20028;-85
2023/03/30 10:50:53;;;;;;;0.40;0.40;;;13.20;99.90;;;;;;5089427;28;20134;-84
2023/03/30 10:53:35;;;;;;;0.30;0.30;;;13.20;99.90;;;;;;5068499;28;20071;-84
2023/03/30 10:56:40;;;;;;;0.52;0.52;;;13.30;99.90;;;;;;5080018;28;20040;-84
2023/03/30 10:59:22;;;;;;;0.30;0.30;;;13.30;99.90;;;;;;5080586;28;20054;-84
2023/03/30 11:01:56;;;;;;;0.30;0.30;;;13.30;99.90;;;;;;5081048;28;20039;-84
2023/03/30 11:04:36;;;;;;;1.80;1.70;;;13.20;99.90;;;;;;5084390;28;20050;-84
2023/03/30 11:07:10;;;;;;;1.40;1.30;;;13.20;99.90;;;;;;5060152;28;20113;-84
2023/03/30 11:09:40;;;;;;;0.20;0.20;;;13.30;99.90;;;;;;5081086;28;20055;-85
2023/03/30 11:12:19;;;;;;;0.45;0.45;;;13.40;99.90;;;;;;5087700;28;20051;-85
2023/03/30 11:15:08;;;;;;;0.20;0.20;;;13.40;99.90;;;;;;5090392;28;20042;-84
2023/03/30 11:17:48;;;;;;;0.30;0.30;;;13.40;99.90;;;;;;5101586;28;20052;-84
2023/03/30 11:20:20;;;;;;;2.50;1.55;;;13.40;99.90;;;;;;5083838;28;20048;-84
2023/03/30 11:23:01;;;;;;;2.03;1.60;;;13.40;99.90;;;;;;5080449;28;20190;-84
2023/03/30 11:25:36;;;;;;;0.30;0.30;;;13.50;99.90;;;;;;5083240;28;20105;-84
2023/03/30 11:28:20;;;;;;;0.65;0.65;;;13.60;99.90;;;;;;5082758;28;20044;-84
2023/03/30 11:30:49;;;;;;;4.28;0.57;;;13.70;99.90;;;;;;5084312;28;20048;-84
2023/03/30 11:33:27;;;;;;;0.45;0.35;;;13.70;99.90;;;;;;5087736;28;20533;-84
2023/03/30 11:35:59;;;;;;;0.20;0.20;;;13.60;99.90;;;;;;5088711;28;20453;-84
2023/03/30 11:39:06;;;;;;;0.30;0.30;;;13.60;99.90;;;;;;5088110;28;20059;-84
2023/03/30 11:41:47;;;;;;;2.60;1.27;;;13.50;99.90;;;;;;5078114;28;20072;-85
2023/03/30 11:44:13;;;;;;;0.30;0.30;;;13.50;99.90;;;;;;5088605;28;20423;-84
2023/03/30 11:47:01;;;;;;;0.28;0.28;;;13.60;99.90;;;;;;5082792;28;20055;-84
2023/03/30 11:49:42;;;;;;;3.50;1.38;;;13.80;99.90;;;;;;5084472;28;20040;-85
2023/03/30 11:52:35;;;;;;;0.65;0.65;;;14.00;99.90;;;;;;5073258;28;20512;-85
2023/03/30 11:55:19;;;;;;;7.43;1.38;;;14.00;99.90;;;;;;5086908;28;20145;-84
2023/03/30 11:58:03;;;;;;;0.80;0.80;;;14.00;99.90;;;;;;5089105;28;20485;-84
2023/03/30 12:00:57;;;;;;;0.55;0.52;;;14.00;99.90;;;;;;5087602;28;20049;-84
2023/03/30 12:03:31;;;;;;;0.55;0.55;;;14.10;99.90;;;;;;5113474;28;20119;-85
2023/03/30 12:06:21;;;;;;;0.40;0.40;;;14.20;99.90;;;;;;5081305;28;20485;-84
2023/03/30 12:08:47;;;;;;;0.60;0.60;;;14.20;99.90;;;;;;5095002;28;20062;-85
2023/03/30 12:11:21;;;;;;;0.93;0.93;;;14.10;99.90;;;;;;5102428;28;20039;-84
2023/03/30 12:13:48;;;;;;;1.48;1.48;;;14.10;99.90;;;;;;5093792;28;20044;-84
2023/03/30 12:16:38;;;;;;;3.33;1.17;;;14.20;99.90;;;;;;5103639;28;20047;-85
2023/03/30 12:19:26;;;;;;;0.40;0.40;;;14.10;99.90;;;;;;5094192;28;20048;-85
2023/03/30 12:21:56;;;;;;;0.40;0.40;;;14.20;99.90;;;;;;5098046;28;20071;-84
2023/03/30 12:24:34;;;;;;;0.40;0.40;;;14.30;99.90;;;;;;5101689;28;20127;-84
2023/03/30 12:27:00;;;;;;;0.40;0.40;;;14.40;99.90;;;;;;5070852;28;20044;-84
2023/03/30 12:29:47;;;;;;;0.32;0.32;;;14.50;99.90;;;;;;5073999;28;20089;-84
2023/03/30 12:32:24;;;;;;;0.30;0.30;;;14.60;99.90;;;;;;5091339;28;20082;-85
2023/03/30 12:34:50;;;;;;;0.55;0.30;;;14.60;99.90;;;;;;5086902;28;20516;-85
2023/03/30 12:37:20;;;;;;;0.20;0.20;;;14.50;99.90;;;;;;5078514;28;20047;-84
2023/03/30 12:39:58;;;;;;;0.28;0.28;;;14.40;99.90;;;;;;5099300;28;20209;-85
2023/03/30 12:42:34;;;;;;;0.22;0.22;;;14.40;99.90;;;;;;5078312;28;20046;-85
2023/03/30 12:45:12;;;;;;;0.20;0.20;;;14.30;99.90;;;;;;5079792;28;20150;-84
2023/03/30 12:48:08;;;;;;;0.73;0.57;;;14.30;99.90;;;;;;5074301;28;20047;-85
2023/03/30 12:51:03;;;;;;;0.35;0.35;;;14.30;99.90;;;;;;5073640;28;20056;-85
2023/03/30 12:54:07;;;;;;;0.20;0.20;;;14.20;99.90;;;;;;5099582;28;20040;-85
2023/03/30 12:57:00;;;;;;;1.58;0.40;;;14.70;99.90;;;;;;5106240;28;20096;-84
2023/03/30 12:59:42;;;;;;;1.55;1.20;;;14.40;99.90;;;;;;5092899;28;20158;-84
2023/03/30 13:02:35;;;;;;;1.15;1.15;;;14.50;99.90;;;;;;5086954;28;20618;-85
2023/03/30 13:05:04;;;;;;;1.02;1.02;;;14.60;99.90;;;;;;5096847;28;20090;-85
2023/03/30 13:07:35;;;;;;;1.75;0.82;;;14.60;99.90;;;;;;5096201;28;21386;-84
2023/03/30 13:10:29;;;;;;;0.60;0.60;;;14.60;99.90;;;;;;5088802;28;20044;-85
2023/03/30 13:13:01;;;;;;;0.30;0.30;;;14.50;99.90;;;;;;5097298;28;20036;-84
2023/03/30 13:15:47;;;;;;;0.20;0.20;;;14.60;99.90;;;;;;5089723;28;20077;-85
2023/03/30 13:18:12;;;;;;;0.25;0.25;;;14.50;99.90;;;;;;5098130;28;20093;-85